New Castle, New Hampshire
Current Conditions -  °F | °C
As of 2:58 PM on Saturday 20 Dec 2014 (Local Time) from KPSM Reporting Station
Broken Clouds Broken Clouds  
Wind Chill: 26°   Ceiling: 3300
Heat Index: 32°   Visibility: 10mi
Dew Point: 23°   Wind: 7mph
Humidity: 70%   Direction: 30°NNE
Pressure: 30.27"   Gusts: NA
Location:  43.07°N, 70.72°W
Report Text: KPSM 201958Z 03006KT 10SM BKN033 00/M05 A3027 RMK AO2A SLP255 T10001048
Loading
Personal Weather Stations






























Interactive Weather Map New forecast layout! Learn more

10-Day Weather Forecast

Advertisements
Track Severe Weather on mobile